Time;durP1;ratioP1;P1;durP2;ratioP2;P2;SDS_P1;SDS_P2;PMS_P1;PMS_P2;Temp;Humidity;BMP_temperature;BMP_pressure;BME280_temperature;BME280_humidity;BME280_pressure;Samples;Min_cycle;Max_cycle;Signal;HPM_P1;HPM_P2
2021/04/26 00:00:41;;;;;;;11.57;4.10;;;;;;;6.97;43.31;99279.44;3549728;40;20054;-65
2021/04/26 00:03:08;;;;;;;4.88;3.38;;;;;;;6.94;43.14;99284.06;3540617;40;20049;-64
2021/04/26 00:05:36;;;;;;;6.38;3.50;;;;;;;6.93;43.40;99284.19;3540731;40;20038;-63
2021/04/26 00:08:04;;;;;;;8.48;3.60;;;;;;;6.89;43.32;99281.06;3549757;40;20137;-62
2021/04/26 00:10:31;;;;;;;7.93;3.42;;;;;;;6.91;43.38;99284.38;3550045;40;20046;-62
2021/04/26 00:12:58;;;;;;;5.75;3.35;;;;;;;6.90;43.26;99290.59;3550339;40;20053;-64
2021/04/26 00:15:42;;;;;;;9.32;3.95;;;;;;;6.94;43.21;99297.19;3549920;40;20311;-64
2021/04/26 00:18:10;;;;;;;6.35;2.85;;;;;;;6.92;43.31;99287.81;3549809;40;20046;-64
2021/04/26 00:20:39;;;;;;;3.60;2.85;;;;;;;6.88;43.34;99286.47;3550062;40;20050;-64
2021/04/26 00:23:06;;;;;;;7.57;3.38;;;;;;;6.72;43.73;99287.22;3549770;40;20053;-64
2021/04/26 00:25:34;;;;;;;6.20;3.38;;;;;;;6.66;43.77;99285.22;3549536;40;20035;-64
2021/04/26 00:28:02;;;;;;;11.80;3.25;;;;;;;6.60;44.07;99281.41;3540380;40;20050;-64
2021/04/26 00:30:30;;;;;;;6.13;3.20;;;;;;;6.56;44.12;99272.19;3549587;40;20050;-64
2021/04/26 00:32:58;;;;;;;8.00;3.17;;;;;;;6.59;44.07;99266.63;3550013;40;20323;-64
2021/04/26 00:35:25;;;;;;;5.53;3.80;;;;;;;6.57;44.08;99262.50;3540772;40;20053;-64
2021/04/26 00:37:53;;;;;;;6.95;3.67;;;;;;;6.50;44.17;99264.94;3549227;40;20058;-64
2021/04/26 00:40:22;;;;;;;9.48;3.80;;;;;;;6.45;44.51;99261.97;3549434;40;20420;-63
2021/04/26 00:42:49;;;;;;;6.75;3.33;;;;;;;6.41;44.50;99260.63;3549496;40;20054;-64
2021/04/26 00:45:18;;;;;;;7.80;3.40;;;;;;;6.37;44.66;99251.41;3541623;40;20463;-64
2021/04/26 00:47:46;;;;;;;5.55;3.20;;;;;;;6.30;44.84;99245.13;3550690;40;20053;-64
2021/04/26 00:50:16;;;;;;;5.25;3.50;;;;;;;6.29;44.70;99248.72;3551056;40;20156;-63
2021/04/26 00:52:44;;;;;;;7.15;3.72;;;;;;;6.26;44.98;99243.78;3551145;40;20085;-64
2021/04/26 00:55:14;;;;;;;5.90;3.60;;;;;;;6.23;45.03;99241.44;3551121;40;20057;-63
2021/04/26 00:57:41;;;;;;;8.73;4.07;;;;;;;6.24;44.96;99240.47;3550217;40;20400;-64
2021/04/26 01:00:10;;;;;;;7.55;3.92;;;;;;;6.17;45.14;99240.28;3550215;40;20063;-63
2021/04/26 01:02:40;;;;;;;6.22;3.72;;;;;;;6.11;45.36;99239.06;3550186;40;20136;-63
2021/04/26 01:05:10;;;;;;;7.47;3.65;;;;;;;6.10;45.44;99237.44;3549865;40;20062;-66
2021/04/26 01:07:40;;;;;;;7.47;3.95;;;;;;;6.05;45.46;99231.00;3549639;40;20146;-63
2021/04/26 01:10:12;;;;;;;9.00;3.70;;;;;;;5.98;45.72;99230.78;3540726;40;20053;-64
2021/04/26 01:12:55;;;;;;;8.98;3.95;;;;;;;5.95;45.56;99225.81;3540658;40;20062;-64
2021/04/26 01:15:26;;;;;;;11.27;4.28;;;;;;;5.89;45.45;99221.16;3548907;40;20061;-62
2021/04/26 01:17:58;;;;;;;8.82;4.07;;;;;;;5.89;45.93;99223.78;3550246;40;20057;-63
2021/04/26 01:21:15;;;;;;;6.57;3.58;;;;;;;5.94;46.05;99224.19;3541391;40;20058;-63
2021/04/26 01:24:21;;;;;;;11.27;4.63;;;;;;;6.05;45.55;99220.50;3550878;40;20050;-63
2021/04/26 01:27:05;;;;;;;6.28;3.78;;;;;;;5.92;45.60;99215.66;3541167;40;20058;-64
2021/04/26 01:29:56;;;;;;;8.73;3.95;;;;;;;5.83;45.79;99213.88;3551443;40;20050;-64
2021/04/26 01:32:30;;;;;;;7.75;4.20;;;;;;;5.73;46.23;99211.38;3550149;40;20090;-64
2021/04/26 01:35:03;;;;;;;8.77;4.40;;;;;;;5.67;46.08;99202.31;3540980;40;20058;-63
2021/04/26 01:37:36;;;;;;;8.45;4.38;;;;;;;5.64;46.39;99209.66;3540880;40;20293;-63
2021/04/26 01:40:06;;;;;;;7.43;4.05;;;;;;;5.60;46.60;99200.44;3550672;40;20050;-63
2021/04/26 01:42:34;;;;;;;8.75;3.60;;;;;;;5.56;46.77;99188.59;3541623;40;20133;-63
2021/04/26 01:45:05;;;;;;;10.75;4.43;;;;;;;5.54;46.87;99190.53;3541793;40;20395;-64
2021/04/26 01:47:34;;;;;;;7.95;3.72;;;;;;;5.50;47.07;99182.16;3541190;40;20140;-63
2021/04/26 01:50:03;;;;;;;4.40;3.97;;;;;;;5.47;47.00;99178.03;3549921;40;20396;-64
2021/04/26 01:52:34;;;;;;;7.45;4.13;;;;;;;5.52;46.85;99179.38;3541403;40;20050;-64
2021/04/26 01:55:02;;;;;;;7.43;3.40;;;;;;;5.52;47.06;99172.34;3541448;40;20050;-64
2021/04/26 01:57:31;;;;;;;6.47;4.10;;;;;;;5.52;47.00;99166.28;3559772;23;593891;-62
2021/04/26 02:00:08;;;;;;;5.30;3.80;;;;;;;5.54;46.82;99161.69;3540645;40;20050;-62
2021/04/26 02:02:57;;;;;;;7.75;4.05;;;;;;;5.60;46.76;99163.72;3549656;40;20125;-62
2021/04/26 02:05:26;;;;;;;9.25;3.47;;;;;;;5.64;46.71;99163.25;3548882;40;20050;-63
2021/04/26 02:08:00;;;;;;;5.45;3.50;;;;;;;5.70;46.56;99162.63;3539941;40;20050;-64
2021/04/26 02:10:33;;;;;;;7.22;3.30;;;;;;;5.66;46.49;99163.09;3539789;40;20038;-64
2021/04/26 02:13:01;;;;;;;12.55;3.90;;;;;;;5.65;46.65;99154.41;3536093;40;20035;-64
2021/04/26 02:15:30;;;;;;;4.38;3.20;;;;;;;5.68;46.55;99158.53;3544207;40;20079;-65
2021/04/26 02:17:59;;;;;;;5.97;3.35;;;;;;;5.68;46.45;99155.91;3542409;40;20031;-63
2021/04/26 02:20:26;;;;;;;10.23;3.25;;;;;;;5.71;46.69;99160.84;3531893;40;20047;-63
2021/04/26 02:22:54;;;;;;;6.38;3.78;;;;;;;5.70;46.69;99152.16;3531803;40;20058;-63
2021/04/26 02:25:22;;;;;;;6.40;3.70;;;;;;;5.57;46.39;99148.28;3540648;40;20055;-63
2021/04/26 02:27:49;;;;;;;7.60;3.75;;;;;;;5.52;46.58;99150.53;3538988;40;20039;-63
2021/04/26 02:30:18;;;;;;;7.97;3.50;;;;;;;5.49;46.88;99151.66;3531375;40;20027;-62
2021/04/26 02:32:53;;;;;;;10.02;3.05;;;;;;;5.54;46.70;99154.66;3539391;40;20035;-62
2021/04/26 02:35:42;;;;;;;6.10;3.33;;;;;;;5.53;46.85;99147.75;3532325;40;20440;-62
2021/04/26 02:38:14;;;;;;;4.20;3.22;;;;;;;5.52;46.68;99145.31;3530661;40;20396;-63
2021/04/26 02:40:44;;;;;;;4.82;3.00;;;;;;;5.48;46.92;99150.03;3539365;40;20035;-62
2021/04/26 02:43:13;;;;;;;5.72;3.30;;;;;;;5.54;46.91;99153.81;3538922;40;20039;-62
2021/04/26 02:45:48;;;;;;;5.90;3.50;;;;;;;5.60;46.68;99148.81;3539593;40;20051;-63
2021/04/26 02:48:15;;;;;;;7.07;3.77;;;;;;;5.57;46.76;99148.28;3539783;40;20404;-63
2021/04/26 02:50:51;;;;;;;7.50;3.55;;;;;;;5.53;46.96;99145.13;3540350;40;20533;-63
2021/04/26 02:53:22;;;;;;;7.28;3.65;;;;;;;5.47;46.86;99130.03;3539955;40;20058;-64
2021/04/26 02:55:51;;;;;;;8.55;4.88;;;;;;;5.45;46.98;99139.81;3538317;40;20400;-64
2021/04/26 02:58:19;;;;;;;9.90;5.25;;;;;;;5.41;47.05;99134.06;3530560;40;20786;-63
2021/04/26 03:00:47;;;;;;;11.52;3.88;;;;;;;5.33;47.17;99136.63;3540098;40;20050;-64
2021/04/26 03:03:31;;;;;;;9.50;3.80;;;;;;;5.20;47.45;99136.19;3538920;40;20464;-64
2021/04/26 03:06:04;;;;;;;8.35;3.95;;;;;;;5.21;47.75;99137.81;3530198;40;20045;-64
2021/04/26 03:08:38;;;;;;;8.48;3.67;;;;;;;5.27;47.21;99136.41;3538480;40;20059;-64
2021/04/26 03:11:06;;;;;;;7.32;3.70;;;;;;;5.23;47.72;99138.50;3530619;40;20487;-65
2021/04/26 03:13:36;;;;;;;6.80;3.30;;;;;;;5.17;47.75;99139.91;3530371;40;20059;-64
2021/04/26 03:16:03;;;;;;;8.82;3.42;;;;;;;5.04;47.84;99136.03;3539691;40;20027;-64
2021/04/26 03:18:31;;;;;;;4.78;3.45;;;;;;;5.11;47.96;99132.66;3538247;40;20113;-64
2021/04/26 03:21:02;;;;;;;7.65;3.53;;;;;;;5.16;48.00;99134.81;3530508;40;20381;-64
2021/04/26 03:23:30;;;;;;;13.65;4.35;;;;;;;5.18;47.97;99131.09;3538425;40;20027;-64
2021/04/26 03:25:59;;;;;;;8.38;3.92;;;;;;;5.23;47.91;99135.88;3530373;40;20129;-64
2021/04/26 03:28:28;;;;;;;7.50;3.70;;;;;;;5.26;47.63;99134.75;3538373;40;20054;-63
2021/04/26 03:30:59;;;;;;;5.60;3.67;;;;;;;5.11;47.90;99127.41;3530335;40;20030;-62
2021/04/26 03:33:39;;;;;;;6.05;3.78;;;;;;;5.11;48.09;99126.59;3539540;40;20069;-63
2021/04/26 03:36:08;;;;;;;8.18;3.90;;;;;;;5.14;48.05;99119.25;3539434;40;20043;-64
2021/04/26 03:38:37;;;;;;;5.45;3.50;;;;;;;5.11;48.04;99113.50;3530461;40;20090;-64
2021/04/26 03:41:05;;;;;;;6.18;3.38;;;;;;;5.09;48.23;99120.66;3539871;40;20046;-64
2021/04/26 03:43:32;;;;;;;8.70;3.47;;;;;;;5.03;48.40;99114.25;3539509;40;20197;-64
2021/04/26 03:46:08;;;;;;;9.30;4.03;;;;;;;5.08;48.18;99114.59;3538298;40;20049;-64
2021/04/26 03:48:53;;;;;;;8.90;3.90;;;;;;;5.06;48.06;99106.09;3539384;40;20419;-63
2021/04/26 03:51:46;;;;;;;7.07;3.08;;;;;;;4.96;48.22;99111.38;3538286;40;20042;-63
2021/04/26 03:54:26;;;;;;;7.30;3.90;;;;;;;4.80;48.70;99110.41;3539488;40;20303;-63
2021/04/26 03:56:53;;;;;;;4.75;3.63;;;;;;;4.72;48.98;99116.38;3530097;40;20042;-64
2021/04/26 03:59:20;;;;;;;14.02;3.85;;;;;;;4.68;48.96;99115.84;3539446;40;20039;-63
2021/04/26 04:01:49;;;;;;;5.38;3.97;;;;;;;4.63;49.44;99117.25;3530250;40;20057;-63
2021/04/26 04:04:16;;;;;;;14.88;7.97;;;;;;;4.67;49.48;99122.06;3539854;40;20109;-62
2021/04/26 04:07:20;;;;;;;6.82;4.28;;;;;;;4.78;49.53;99117.59;3538744;40;20087;-63
2021/04/26 04:10:09;;;;;;;7.25;3.67;;;;;;;4.76;49.08;99112.47;3539950;40;20122;-64
2021/04/26 04:12:56;;;;;;;11.40;6.10;;;;;;;4.57;49.61;99107.34;3539981;40;20058;-63
2021/04/26 04:15:23;;;;;;;21.38;9.95;;;;;;;4.56;49.72;99100.47;3530476;40;20059;-63
2021/04/26 04:17:51;;;;;;;9.38;5.32;;;;;;;4.51;49.65;99110.56;3538903;40;20046;-64
2021/04/26 04:20:19;;;;;;;13.88;7.88;;;;;;;4.37;50.20;99106.66;3538176;40;20054;-63
2021/04/26 04:22:48;;;;;;;15.45;7.18;;;;;;;4.44;50.48;99113.75;3530080;40;20060;-63
2021/04/26 04:25:16;;;;;;;8.32;4.68;;;;;;;4.55;50.22;99118.00;3538377;40;20328;-64
2021/04/26 04:27:44;;;;;;;11.77;5.90;;;;;;;4.63;50.00;99119.88;3538330;40;20043;-63
2021/04/26 04:30:14;;;;;;;9.50;5.00;;;;;;;4.60;50.21;99128.03;3538572;40;20039;-65
2021/04/26 04:33:00;;;;;;;9.23;5.45;;;;;;;4.63;50.24;99128.56;3539068;40;20419;-64
2021/04/26 04:35:45;;;;;;;14.77;4.53;;;;;;;4.57;50.32;99129.16;3539305;40;20312;-64
2021/04/26 04:38:35;;;;;;;11.82;7.03;;;;;;;4.55;50.54;99125.84;3524766;40;20101;-64
2021/04/26 04:41:21;;;;;;;9.13;4.43;;;;;;;4.55;50.65;99122.41;3539327;40;20348;-65
2021/04/26 04:43:48;;;;;;;13.00;5.65;;;;;;;4.63;50.56;99122.50;3538111;40;20090;-63
2021/04/26 04:46:18;;;;;;;11.73;4.30;;;;;;;4.61;50.41;99120.03;3539142;40;20054;-64
2021/04/26 04:49:00;;;;;;;12.30;4.38;;;;;;;4.59;50.35;99116.72;3539143;40;20043;-64
2021/04/26 04:51:29;;;;;;;8.20;4.28;;;;;;;4.56;50.40;99118.81;3537959;40;20031;-64
2021/04/26 04:54:03;;;;;;;11.97;5.77;;;;;;;4.47;50.38;99121.34;3530256;40;20053;-63
2021/04/26 04:56:39;;;;;;;7.97;4.65;;;;;;;4.38;50.97;99116.97;3538491;40;20690;-62
2021/04/26 04:59:07;;;;;;;10.40;4.72;;;;;;;4.40;50.92;99122.06;3538524;40;20054;-63
2021/04/26 05:01:36;;;;;;;9.93;4.03;;;;;;;4.43;51.00;99119.97;3537894;40;20059;-63
2021/04/26 05:04:34;;;;;;;7.22;3.92;;;;;;;4.54;50.47;99120.75;3527246;40;20055;-63
2021/04/26 05:07:19;;;;;;;7.22;4.47;;;;;;;4.54;50.52;99126.00;3538500;40;20039;-64
2021/04/26 05:10:08;;;;;;;10.93;4.47;;;;;;;4.58;50.36;99129.97;3538942;40;20405;-64
2021/04/26 05:12:58;;;;;;;6.40;4.32;;;;;;;4.64;50.17;99130.19;3524551;40;20352;-64
2021/04/26 05:15:34;;;;;;;8.10;4.38;;;;;;;4.63;50.40;99138.22;3529362;40;20083;-63
2021/04/26 05:18:00;;;;;;;7.13;4.53;;;;;;;4.58;50.49;99137.84;3539317;40;20043;-63
2021/04/26 05:20:27;;;;;;;9.52;4.70;;;;;;;4.64;50.68;99132.81;3539408;40;20057;-63
2021/04/26 05:22:57;;;;;;;6.80;4.35;;;;;;;4.81;50.45;99136.44;3538504;40;20407;-63
2021/04/26 05:25:25;;;;;;;10.77;4.57;;;;;;;4.90;49.81;99130.31;3539247;40;20058;-63
2021/04/26 05:27:53;;;;;;;7.85;4.28;;;;;;;4.92;49.86;99138.84;3537809;40;20054;-64
2021/04/26 05:30:21;;;;;;;10.95;4.40;;;;;;;5.00;49.85;99135.50;3539625;40;20091;-63
2021/04/26 05:32:49;;;;;;;6.43;4.88;;;;;;;5.06;49.40;99140.16;3531132;40;20413;-63
2021/04/26 05:35:38;;;;;;;7.07;3.95;;;;;;;5.12;49.61;99136.91;3540355;40;20109;-64
2021/04/26 05:38:12;;;;;;;9.80;5.10;;;;;;;5.25;49.39;99146.22;3531375;40;20054;-64
2021/04/26 05:40:39;;;;;;;7.25;4.13;;;;;;;5.38;49.05;99136.97;3539853;40;20046;-64
2021/04/26 05:43:08;;;;;;;10.18;4.40;;;;;;;5.53;48.57;99136.44;3531188;40;20043;-64
2021/04/26 05:45:37;;;;;;;7.45;4.00;;;;;;;5.54;48.37;99132.84;3539998;40;20051;-64
2021/04/26 05:48:12;;;;;;;8.60;4.78;;;;;;;5.57;48.23;99136.00;3530748;40;20047;-64
2021/04/26 05:50:39;;;;;;;11.43;4.40;;;;;;;5.65;48.42;99133.44;3540497;40;20051;-64
2021/04/26 05:53:06;;;;;;;11.80;4.32;;;;;;;5.80;47.97;99136.34;3540618;40;20053;-64
2021/04/26 05:55:33;;;;;;;14.20;5.00;;;;;;;5.82;47.76;99136.97;3539808;40;20051;-65
2021/04/26 05:58:00;;;;;;;14.18;4.78;;;;;;;5.84;47.42;99142.91;3540256;40;20080;-65
2021/04/26 06:00:27;;;;;;;9.52;4.40;;;;;;;5.82;47.67;99138.78;3540226;40;20047;-64
2021/04/26 06:03:00;;;;;;;8.85;4.47;;;;;;;5.90;47.52;99137.03;3540254;40;20050;-64
2021/04/26 06:05:27;;;;;;;8.00;4.25;;;;;;;5.99;47.36;99140.56;3539880;40;20050;-65
2021/04/26 06:07:54;;;;;;;9.13;4.30;;;;;;;6.08;47.14;99142.28;3538935;40;20073;-64
2021/04/26 06:10:21;;;;;;;7.88;3.75;;;;;;;6.10;46.69;99137.69;3540552;40;20407;-65
2021/04/26 06:12:48;;;;;;;8.00;4.20;;;;;;;6.11;46.78;99134.06;3539738;40;20051;-64
2021/04/26 06:15:15;;;;;;;7.55;3.80;;;;;;;6.20;46.69;99125.28;3539935;40;20057;-65
2021/04/26 06:17:41;;;;;;;7.78;4.20;;;;;;;6.30;46.58;99114.66;3539628;40;20078;-64
2021/04/26 06:20:10;;;;;;;5.68;3.60;;;;;;;6.39;46.13;99118.94;3539797;40;20057;-64
2021/04/26 06:22:37;;;;;;;7.18;3.40;;;;;;;6.47;46.18;99114.72;3540082;40;20055;-64
2021/04/26 06:25:05;;;;;;;6.43;3.92;;;;;;;6.52;45.93;99118.50;3530640;40;20073;-64
2021/04/26 06:27:31;;;;;;;6.30;3.83;;;;;;;6.63;45.80;99114.78;3539584;40;20058;-64
2021/04/26 06:29:58;;;;;;;7.15;3.85;;;;;;;6.62;45.45;99115.75;3539756;40;20057;-65
2021/04/26 06:32:25;;;;;;;10.05;3.50;;;;;;;6.62;45.20;99118.38;3539793;40;20405;-64
2021/04/26 06:34:52;;;;;;;7.63;3.95;;;;;;;6.67;45.21;99113.47;3539804;40;20073;-65
2021/04/26 06:37:20;;;;;;;5.38;3.55;;;;;;;6.74;45.06;99119.75;3539773;40;20431;-64
2021/04/26 06:39:47;;;;;;;9.02;3.80;;;;;;;6.81;44.83;99110.22;3540189;40;20059;-64
2021/04/26 06:42:13;;;;;;;9.18;3.83;;;;;;;6.90;44.52;99106.63;3539446;40;20055;-64
2021/04/26 06:44:40;;;;;;;17.25;4.00;;;;;;;6.91;44.10;99108.28;3531027;40;20065;-64
2021/04/26 06:47:07;;;;;;;8.05;4.18;;;;;;;6.97;44.03;99105.97;3540173;40;20047;-64
2021/04/26 06:49:34;;;;;;;7.50;3.70;;;;;;;7.05;43.89;99098.91;3540213;40;20081;-64
2021/04/26 06:52:01;;;;;;;8.60;3.85;;;;;;;7.06;43.47;99103.22;3539966;40;20091;-64
2021/04/26 06:54:28;;;;;;;5.32;2.95;;;;;;;7.05;43.67;99103.34;3540099;40;20073;-64
2021/04/26 06:56:56;;;;;;;11.68;3.92;;;;;;;7.05;43.72;99098.91;3539907;40;20039;-64
2021/04/26 06:59:22;;;;;;;7.95;3.75;;;;;;;7.17;43.67;99094.16;3540152;40;20046;-63
2021/04/26 07:01:49;;;;;;;11.45;3.70;;;;;;;7.33;43.52;99088.91;3540075;40;20090;-64
2021/04/26 07:04:16;;;;;;;11.15;3.55;;;;;;;7.48;43.36;99090.91;3540221;40;20061;-64
2021/04/26 07:06:43;;;;;;;9.07;3.65;;;;;;;7.58;43.09;99087.09;3539943;40;20054;-64
2021/04/26 07:09:09;;;;;;;5.70;3.38;;;;;;;7.46;42.88;99091.03;3530639;40;20062;-64
2021/04/26 07:11:39;;;;;;;12.55;4.22;;;;;;;7.53;43.01;99089.41;3540029;40;20095;-64
2021/04/26 07:14:06;;;;;;;6.55;4.00;;;;;;;7.60;42.71;99085.13;3530682;40;20043;-64
2021/04/26 07:16:33;;;;;;;9.35;3.42;;;;;;;7.59;42.58;99087.91;3539330;40;20053;-64
2021/04/26 07:19:00;;;;;;;6.20;3.47;;;;;;;7.66;42.52;99081.00;3530447;40;20118;-64
2021/04/26 07:21:27;;;;;;;12.73;3.50;;;;;;;7.74;42.38;99077.53;3530762;40;20034;-64
2021/04/26 07:23:54;;;;;;;5.43;3.28;;;;;;;7.65;42.31;99071.47;3539713;40;20058;-64
2021/04/26 07:26:22;;;;;;;6.18;3.35;;;;;;;7.74;42.19;99075.72;3539213;40;20043;-64
2021/04/26 07:28:49;;;;;;;10.13;4.03;;;;;;;7.93;42.02;99071.91;3538914;40;20065;-64
2021/04/26 07:31:16;;;;;;;8.85;4.40;;;;;;;7.99;41.99;99073.03;3539561;40;20038;-62
2021/04/26 07:33:43;;;;;;;7.60;3.53;;;;;;;8.12;41.91;99073.31;3539613;40;20137;-63
2021/04/26 07:36:10;;;;;;;7.00;3.17;;;;;;;8.23;41.42;99072.13;3539502;40;20312;-63
2021/04/26 07:38:36;;;;;;;6.18;3.47;;;;;;;8.28;41.15;99064.53;3530252;40;20061;-64
2021/04/26 07:41:04;;;;;;;6.82;3.60;;;;;;;8.47;40.90;99061.50;3539590;40;20054;-63
2021/04/26 07:43:30;;;;;;;7.90;3.55;;;;;;;8.57;40.51;99067.41;3539651;40;20345;-64
2021/04/26 07:45:58;;;;;;;4.93;3.50;;;;;;;8.65;40.17;99069.97;3539528;40;20066;-63
2021/04/26 07:48:25;;;;;;;9.27;4.22;;;;;;;8.74;40.04;99067.31;3539253;40;20324;-64
2021/04/26 07:50:52;;;;;;;13.07;8.63;;;;;;;8.87;39.57;99060.44;3539790;40;20419;-63
2021/04/26 07:53:18;;;;;;;9.00;6.20;;;;;;;8.93;39.54;99059.72;3539372;40;20097;-63
2021/04/26 07:55:45;;;;;;;7.00;4.38;;;;;;;9.03;39.52;99056.06;3540014;40;20499;-63
2021/04/26 07:58:12;;;;;;;8.52;5.43;;;;;;;9.06;39.55;99058.31;3540417;40;20084;-63
2021/04/26 08:00:38;;;;;;;8.90;4.30;;;;;;;9.23;39.19;99059.84;3540539;40;20053;-64
2021/04/26 08:03:06;;;;;;;7.65;3.70;;;;;;;9.25;39.23;99055.22;3540059;40;20336;-62
2021/04/26 08:05:34;;;;;;;11.55;3.75;;;;;;;9.25;39.47;99052.56;3540063;40;20404;-63
2021/04/26 08:08:01;;;;;;;11.52;4.20;;;;;;;9.28;39.29;99040.84;3539531;40;20046;-63
2021/04/26 08:10:28;;;;;;;7.35;4.35;;;;;;;9.23;39.60;99046.66;3539696;40;20081;-63
2021/04/26 08:12:54;;;;;;;8.27;4.15;;;;;;;8.96;40.04;99045.38;3539550;40;20414;-63
2021/04/26 08:15:22;;;;;;;9.50;3.60;;;;;;;9.15;40.18;99049.38;3539270;40;20046;-62
2021/04/26 08:17:49;;;;;;;6.55;3.67;;;;;;;9.33;39.95;99049.84;3539002;40;20051;-63
2021/04/26 08:20:17;;;;;;;6.60;4.15;;;;;;;9.35;39.65;99055.78;3539380;40;20090;-63
2021/04/26 08:22:44;;;;;;;6.20;3.95;;;;;;;9.54;39.60;99054.44;3539494;40;20041;-63
2021/04/26 08:25:11;;;;;;;6.85;3.47;;;;;;;9.71;39.39;99049.00;3539134;40;20054;-63
2021/04/26 08:27:38;;;;;;;7.43;5.40;;;;;;;9.77;39.23;99043.84;3539193;40;20042;-63
2021/04/26 08:30:07;;;;;;;9.15;5.72;;;;;;;10.00;38.96;99046.41;3538997;40;20039;-63
2021/04/26 08:32:34;;;;;;;4.47;3.35;;;;;;;9.89;38.42;99052.94;3539380;40;20073;-62
2021/04/26 08:35:02;;;;;;;10.25;6.32;;;;;;;9.92;38.65;99047.31;3539222;40;20027;-63
2021/04/26 08:37:30;;;;;;;6.40;3.65;;;;;;;10.06;38.28;99036.91;3529933;40;20342;-63
2021/04/26 08:39:57;;;;;;;7.43;5.38;;;;;;;10.16;38.32;99035.63;3530272;40;20059;-63
2021/04/26 08:42:23;;;;;;;8.73;4.93;;;;;;;10.41;37.61;99044.09;3539327;40;20313;-63
2021/04/26 08:44:50;;;;;;;9.27;4.78;;;;;;;10.47;37.12;99041.72;3539273;40;20128;-63
2021/04/26 08:47:19;;;;;;;6.43;3.60;;;;;;;10.45;37.17;99031.34;3537807;40;20087;-63
2021/04/26 08:49:46;;;;;;;9.15;4.00;;;;;;;10.45;37.17;99041.91;3538587;40;20109;-63
2021/04/26 08:52:13;;;;;;;6.70;4.00;;;;;;;10.22;37.41;99033.25;3538806;40;20419;-63
2021/04/26 08:54:40;;;;;;;7.45;3.92;;;;;;;10.49;37.68;99029.97;3538817;40;20060;-63
2021/04/26 08:57:07;;;;;;;7.40;4.25;;;;;;;10.69;36.96;99019.56;3529660;40;20049;-63
2021/04/26 08:59:35;;;;;;;5.70;3.75;;;;;;;10.87;36.61;99016.50;3538909;40;20062;-64
2021/04/26 09:02:04;;;;;;;11.15;4.20;;;;;;;10.95;36.20;99012.91;3538830;40;20027;-64
2021/04/26 09:04:33;;;;;;;6.05;4.10;;;;;;;11.07;36.08;99014.06;3529894;40;20054;-64
2021/04/26 09:07:03;;;;;;;7.03;4.13;;;;;;;11.19;35.35;99017.00;3539824;40;20050;-63
2021/04/26 09:09:38;;;;;;;7.15;3.60;;;;;;;11.19;35.34;99020.47;3540358;40;20437;-63
2021/04/26 09:12:09;;;;;;;6.68;4.03;;;;;;;10.75;35.81;99018.03;3540492;40;20306;-64
2021/04/26 09:14:41;;;;;;;8.80;3.95;;;;;;;10.92;35.90;99011.47;3540455;40;20038;-63
2021/04/26 09:17:26;;;;;;;8.23;4.20;;;;;;;11.15;35.37;99008.63;3540056;40;20425;-63
2021/04/26 09:19:54;;;;;;;7.75;3.80;;;;;;;11.30;35.05;99003.22;3540282;40;20038;-63
2021/04/26 09:22:41;;;;;;;5.72;3.92;;;;;;;11.62;34.40;98999.97;3539991;40;20050;-63
2021/04/26 09:25:26;;;;;;;6.57;3.58;;;;;;;11.74;34.46;99004.75;3540282;40;20058;-63
2021/04/26 09:27:57;;;;;;;10.05;6.28;;;;;;;11.87;32.96;98995.06;3539614;40;20051;-64
2021/04/26 09:30:45;;;;;;;8.80;6.70;;;;;;;11.86;32.87;98989.97;3540022;40;20133;-63
2021/04/26 09:33:33;;;;;;;6.65;3.42;;;;;;;11.88;32.67;98998.56;3540229;40;20058;-63
2021/04/26 09:36:14;;;;;;;9.50;5.05;;;;;;;11.91;32.55;99000.78;3540324;40;20062;-63
2021/04/26 09:38:44;;;;;;;9.50;5.05;;;;;;;12.01;32.21;98998.59;3540700;40;20054;-63
2021/04/26 09:41:20;;;;;;;8.27;3.30;;;;;;;12.04;31.69;98994.72;3531487;40;20057;-63
2021/04/26 09:43:51;;;;;;;5.93;3.40;;;;;;;12.20;31.61;98990.94;3540564;40;20055;-63
2021/04/26 09:46:20;;;;;;;4.93;3.38;;;;;;;12.18;30.86;98996.44;3540517;40;20461;-63
2021/04/26 09:48:48;;;;;;;4.80;3.60;;;;;;;12.12;31.58;98999.88;3540538;40;20054;-63
2021/04/26 09:51:21;;;;;;;7.13;3.30;;;;;;;12.09;31.58;98994.97;3540069;40;20075;-63
2021/04/26 09:53:52;;;;;;;5.43;3.75;;;;;;;12.12;31.94;98987.47;3540070;40;20062;-64
2021/04/26 09:56:21;;;;;;;5.80;3.30;;;;;;;12.16;31.17;98987.84;3539972;40;20042;-63
2021/04/26 09:58:52;;;;;;;6.40;3.13;;;;;;;12.14;31.43;98976.66;3540913;40;20062;-63
2021/04/26 10:01:21;;;;;;;7.97;3.50;;;;;;;12.25;31.37;98975.28;3542947;40;20039;-63
2021/04/26 10:03:49;;;;;;;6.32;3.13;;;;;;;12.30;31.36;98972.84;3541043;40;20059;-63
2021/04/26 10:06:20;;;;;;;7.60;3.45;;;;;;;12.27;31.75;98968.72;3530831;40;20097;-64
2021/04/26 10:08:48;;;;;;;5.72;3.20;;;;;;;12.37;31.82;98973.69;3539700;40;20053;-63
2021/04/26 10:11:16;;;;;;;12.73;4.88;;;;;;;12.37;32.14;98974.50;3539892;40;20051;-63
2021/04/26 10:13:45;;;;;;;5.63;3.40;;;;;;;12.43;31.32;98974.69;3539827;40;20046;-63
2021/04/26 10:16:20;;;;;;;7.47;3.70;;;;;;;12.43;31.75;98959.59;3539813;40;20133;-63
2021/04/26 10:18:48;;;;;;;7.32;3.25;;;;;;;12.47;31.54;98960.03;3540060;40;20054;-63
2021/04/26 10:21:34;;;;;;;7.20;3.53;;;;;;;12.28;31.58;98933.25;3540191;40;20054;-63
2021/04/26 10:24:19;;;;;;;12.25;4.05;;;;;;;12.34;32.08;98937.78;3540238;40;20055;-64
2021/04/26 10:26:49;;;;;;;12.48;4.00;;;;;;;12.63;31.46;98931.28;3540098;40;20140;-64
2021/04/26 10:29:23;;;;;;;3.67;3.00;;;;;;;12.80;31.15;98933.53;3540290;40;20051;-63
2021/04/26 10:32:16;;;;;;;9.18;3.88;;;;;;;12.75;31.06;98939.47;3540458;40;20054;-63
2021/04/26 10:35:09;;;;;;;5.55;3.55;;;;;;;12.82;30.61;98942.13;3533010;40;20427;-64
2021/04/26 10:37:37;;;;;;;9.02;3.47;;;;;;;13.00;30.04;98933.53;3540000;40;20055;-63
2021/04/26 10:40:12;;;;;;;6.50;3.75;;;;;;;13.05;29.90;98912.50;3540309;40;20050;-64
2021/04/26 10:42:40;;;;;;;6.00;3.40;;;;;;;13.12;29.59;98918.63;3539845;40;20058;-64
2021/04/26 10:45:20;;;;;;;5.03;3.20;;;;;;;13.34;28.45;98930.66;3539573;40;20054;-64
2021/04/26 10:48:11;;;;;;;5.63;3.40;;;;;;;13.18;29.24;98914.31;3539798;40;20051;-64
2021/04/26 10:50:49;;;;;;;8.10;3.60;;;;;;;13.37;29.16;98903.72;3540405;40;20039;-64
2021/04/26 10:53:16;;;;;;;6.72;3.65;;;;;;;13.46;28.68;98904.28;3540002;40;20105;-64
2021/04/26 10:56:04;;;;;;;5.40;3.50;;;;;;;13.40;28.65;98899.03;3541061;40;20058;-65
2021/04/26 10:58:39;;;;;;;6.13;3.65;;;;;;;13.37;28.68;98894.94;3540606;40;20117;-64
2021/04/26 11:01:08;;;;;;;7.10;3.20;;;;;;;13.44;27.50;98897.56;3540654;40;20157;-64
2021/04/26 11:03:37;;;;;;;4.57;3.00;;;;;;;13.19;28.21;98895.56;3540225;40;20121;-64
2021/04/26 11:06:13;;;;;;;7.50;3.30;;;;;;;13.34;27.76;98882.88;3540294;40;20057;-64
2021/04/26 11:08:42;;;;;;;6.95;3.30;;;;;;;13.39;26.97;98876.97;3539973;40;20035;-64
2021/04/26 11:11:14;;;;;;;5.05;3.28;;;;;;;13.41;26.80;98877.56;3540100;40;20328;-64
2021/04/26 11:13:47;;;;;;;7.72;3.45;;;;;;;13.50;26.67;98870.16;3539863;40;20337;-64
2021/04/26 11:16:16;;;;;;;7.25;2.83;;;;;;;13.67;26.99;98857.22;3540009;40;20339;-64
2021/04/26 11:18:45;;;;;;;6.22;2.92;;;;;;;13.86;26.03;98854.47;3540647;40;20050;-64
2021/04/26 11:21:32;;;;;;;6.80;3.10;;;;;;;13.70;26.66;98856.81;3540714;40;20050;-64
2021/04/26 11:23:59;;;;;;;5.85;2.60;;;;;;;13.64;26.81;98845.22;3539936;40;20352;-64
2021/04/26 11:26:26;;;;;;;4.22;2.97;;;;;;;13.80;26.54;98838.59;3539988;40;20145;-64
2021/04/26 11:29:08;;;;;;;4.40;2.47;;;;;;;13.86;26.05;98830.56;3539712;40;20058;-64
2021/04/26 11:32:04;;;;;;;6.80;3.10;;;;;;;13.87;26.15;98829.53;3540255;40;20058;-64
2021/04/26 11:35:07;;;;;;;8.48;2.92;;;;;;;13.89;26.42;98829.34;3531545;40;20046;-64
2021/04/26 11:37:36;;;;;;;7.60;3.47;;;;;;;14.02;26.24;98823.13;3540932;40;20333;-66
2021/04/26 11:40:22;;;;;;;7.60;2.72;;;;;;;13.98;26.06;98830.72;3532288;40;20301;-63
2021/04/26 11:42:49;;;;;;;12.52;8.25;;;;;;;14.01;25.26;98821.50;3541009;40;20050;-64
2021/04/26 11:45:20;;;;;;;5.53;3.28;;;;;;;13.92;24.28;98822.75;3539841;40;20050;-64
2021/04/26 11:47:49;;;;;;;4.43;2.83;;;;;;;14.12;25.32;98820.78;3539734;40;20052;-63
2021/04/26 11:50:17;;;;;;;5.78;2.90;;;;;;;14.16;24.77;98814.03;3539424;40;20057;-63
2021/04/26 11:52:44;;;;;;;4.70;2.60;;;;;;;14.23;24.19;98806.81;3539557;40;20042;-63
2021/04/26 11:55:15;;;;;;;5.55;3.22;;;;;;;14.22;24.18;98807.06;3539360;40;20057;-63
2021/04/26 11:57:45;;;;;;;6.18;2.85;;;;;;;14.27;24.32;98788.59;3544192;40;20027;-63
2021/04/26 12:00:15;;;;;;;3.33;2.83;;;;;;;14.24;23.98;98794.34;3552317;40;20043;-63